Aérodrome :
LOGIN :

S'inscrire | Disclaimer

   EN    FR    IT 

 










Légende :    VFR   VFR Marginal   IFR   IFR Intensif   IFR Très Intensif
Visi : 
Plafond : 
>= 8 km
>= 3000ft
5 à 8 km
1000 à 3000 ft
1500m à 5 km
500 à 1000 ft
800 à 1500m
200 à 500 ft
< 800m
< 200 ft
Symboles :   Orages  Brouillard  Fortes neiges  Fortes précipitations  Vent > 20 kt
SIGMETs :   Divers  Orages  Givrage  Turbulence  Onde Orograph.  Cendres Volcan.







- Altitude de l'aérodrome : 294 ft
- Code IATA : NAP


LIRN - Naples Capodichino

DERNIER METAR :
  • 260950Z 08010KT 060V120 9999 FEW030 BKN050 15/07 Q1011 NOSIG

METARs EXPIRÉS :
  • 260920Z 08009KT 050V110 9999 FEW030 BKN050 14/07 Q1011 NOSIG
  • 260850Z 07011KT 9999 FEW030 BKN050 14/07 Q1011 NOSIG
  • 260820Z 07010KT 8000 FEW030 15/09 Q1010 NOSIG
  • 260750Z VRB02KT 8000 FEW030 14/09 Q1010 NOSIG
  • 260720Z 06005KT 350V090 8000 FEW030 13/09 Q1010 NOSIG

TAF COR TAF LIRN
Valide du 26 à 06h jusqu'au 27 à 06h UTC


260815Z 2606/2706 06006KT 9999 SCT030
BECMG 2610/2612 06016KT
TEMPO 2615/2703 4000 SHRA
Pas de NOTAMs connus pour ce terrain.
2 SIGMETs publiés pour la FIR Roma (LIRR) :
 
Turbulence forte
LIRR SIGMET 5 VALID 260830/261130 LIIB
LIRR ROMA FIR SEV TURB FCST WI N3942 E00951 - N3947 E01055 - N4128 E01049 - N4124 E00946 - N3942 E00951 SFC/FL040 STNR NC=
Turbulence forte
LIRR SIGMET 4 VALID 260830/261130 LIIB
LIRR ROMA FIR SEV TURB FCST N OF LINE N4122 E00937 - N4232 E01346 SFC/FL080 STNR NC=



MET'MAP, la Météo Aéronautique d'un coup d'oeil ! - Copyright ORBIFLY Décembre 2007 - Disclaimer

ORBIFLY MET'MAP TEAM :

Programmation & Développement : Alexandra Zaïnal
Conception & Développement : Baudouin d'Aumeries
Co-Programmation & Développement : Marc-Olivier Méhu
Soutien technique & logistique : Manuel Goepfert

Contact : metmap@orbifly.com




SOURCES & CREDITS :

   NOAA